createdAt,value
2019-05-26T00:02:22.724Z,7.39
2019-05-26T00:04:53.391Z,7.41
2019-05-26T00:07:30.502Z,7.41
2019-05-26T00:09:56.562Z,7.41
2019-05-26T00:12:27.231Z,7.44
2019-05-26T00:14:58.013Z,7.52
2019-05-26T00:17:28.931Z,7.57
2019-05-26T00:19:59.754Z,7.68
2019-05-26T00:22:30.829Z,7.77
2019-05-26T00:25:01.648Z,7.84
2019-05-26T00:27:32.284Z,7.88
2019-05-26T00:30:03.883Z,7.94
2019-05-26T00:32:34.768Z,8.03
2019-05-26T00:35:09.140Z,8.14
2019-05-26T00:37:49.279Z,8.24
2019-05-26T00:40:12.664Z,8.36
2019-05-26T00:42:43.994Z,8.44
2019-05-26T00:45:15.215Z,8.49
2019-05-26T00:47:46.017Z,8.62
2019-05-26T00:50:18.648Z,8.71
2019-05-26T00:52:49.521Z,8.86
2019-05-26T00:55:20.754Z,8.95
2019-05-26T00:57:51.508Z,9.05
2019-05-26T01:00:39.928Z,9.10
2019-05-26T01:03:11.137Z,9.20
2019-05-26T01:05:42.027Z,9.24
2019-05-26T01:08:15.501Z,9.29
2019-05-26T01:10:47.995Z,9.34
2019-05-26T01:13:18.739Z,9.36
2019-05-26T01:15:50.819Z,9.46
2019-05-26T01:18:22.849Z,9.50
2019-05-26T01:20:56.482Z,9.46
2019-05-26T01:23:27.114Z,9.46
2019-05-26T01:25:57.740Z,9.48
2019-05-26T01:28:28.586Z,9.50
2019-05-26T01:30:59.328Z,9.53
2019-05-26T01:33:30.027Z,9.55
2019-05-26T01:36:00.949Z,9.56
2019-05-26T01:38:32.483Z,9.58
2019-05-26T01:41:03.177Z,9.59
2019-05-26T01:43:34.021Z,9.62
2019-05-26T01:46:04.672Z,9.68
2019-05-26T01:48:35.351Z,9.73
2019-05-26T01:51:06.205Z,9.76
2019-05-26T01:53:36.958Z,9.81
2019-05-26T01:56:07.763Z,9.85
2019-05-26T01:58:38.575Z,9.89
2019-05-26T02:01:09.271Z,9.91
2019-05-26T02:03:40.153Z,9.96
2019-05-26T02:06:10.972Z,10.00
2019-05-26T02:08:41.739Z,10.03
2019-05-26T02:11:12.547Z,10.04
2019-05-26T02:13:43.193Z,10.04
2019-05-26T02:16:13.841Z,10.11
2019-05-26T02:18:44.474Z,10.12
2019-05-26T02:21:15.133Z,10.17
2019-05-26T02:23:45.854Z,10.19
2019-05-26T02:26:16.552Z,10.23
2019-05-26T02:28:47.937Z,10.24
2019-05-26T02:31:18.758Z,10.23
2019-05-26T02:33:49.489Z,10.24
2019-05-26T02:36:20.401Z,10.24
2019-05-26T02:39:01.860Z,10.25
2019-05-26T02:41:23.516Z,10.30
2019-05-26T02:43:54.267Z,10.33
2019-05-26T02:46:24.971Z,10.37
2019-05-26T02:48:55.832Z,10.41
2019-05-26T02:51:26.462Z,10.44
2019-05-26T02:53:57.078Z,10.49
2019-05-26T02:56:27.760Z,10.50
2019-05-26T02:58:59.557Z,10.55
2019-05-26T03:01:31.571Z,10.55
2019-05-26T03:04:02.286Z,10.52
2019-05-26T03:06:34.365Z,10.54
2019-05-26T03:09:21.988Z,10.56
2019-05-26T03:11:41.004Z,10.54
2019-05-26T03:14:13.412Z,10.55
2019-05-26T03:16:46.581Z,10.53
2019-05-26T03:19:19.460Z,10.51
2019-05-26T03:21:52.387Z,10.52
2019-05-26T03:24:25.391Z,10.51
2019-05-26T03:26:56.951Z,10.54
2019-05-26T03:29:27.594Z,10.57
2019-05-26T03:31:58.768Z,10.61
2019-05-26T03:34:29.593Z,10.59
2019-05-26T03:37:00.195Z,10.66
2019-05-26T03:39:43.739Z,10.74
2019-05-26T03:42:03.372Z,10.81
2019-05-26T03:44:34.001Z,10.95
2019-05-26T03:47:04.556Z,10.97
2019-05-26T03:49:35.351Z,11.03
2019-05-26T03:52:07.132Z,11.15
2019-05-26T03:54:37.878Z,11.28
2019-05-26T03:57:08.492Z,11.33
2019-05-26T03:59:39.126Z,11.42
2019-05-26T04:02:10.226Z,11.44
2019-05-26T04:04:40.786Z,11.47
2019-05-26T04:07:11.450Z,11.54
2019-05-26T04:10:02.569Z,11.62
2019-05-26T04:12:14.466Z,11.65
2019-05-26T04:14:45.203Z,11.68
2019-05-26T04:17:15.962Z,11.66
2019-05-26T04:19:46.599Z,11.67
2019-05-26T04:22:17.534Z,11.71
2019-05-26T04:24:48.413Z,11.78
2019-05-26T04:27:19.337Z,11.89
2019-05-26T04:29:50.105Z,11.89
2019-05-26T04:32:21.134Z,11.95
2019-05-26T04:34:51.968Z,12.02
2019-05-26T04:37:23.065Z,11.99
2019-05-26T04:39:54.652Z,12.13
2019-05-26T04:42:25.509Z,12.16
2019-05-26T04:44:56.180Z,12.24
2019-05-26T04:47:27.437Z,12.31
2019-05-26T04:49:59.856Z,12.38
2019-05-26T04:52:31.882Z,12.41
2019-05-26T04:55:04.009Z,12.66
2019-05-26T04:57:35.001Z,12.94
2019-05-26T05:00:09.263Z,13.08
2019-05-26T05:02:40.239Z,13.33
2019-05-26T05:05:11.871Z,13.52
2019-05-26T05:07:42.634Z,13.49
2019-05-26T05:10:13.541Z,13.63
2019-05-26T05:12:44.340Z,13.59
2019-05-26T05:15:15.644Z,13.55
2019-05-26T05:17:46.364Z,13.86
2019-05-26T05:20:17.027Z,13.91
2019-05-26T05:22:48.796Z,14.18
2019-05-26T05:25:19.582Z,14.41
2019-05-26T05:27:50.380Z,14.82
2019-05-26T05:30:22.055Z,14.82
2019-05-26T05:32:52.801Z,14.79
2019-05-26T05:35:23.678Z,14.79
2019-05-26T05:37:54.373Z,14.84
2019-05-26T05:40:24.993Z,14.60
2019-05-26T05:42:55.845Z,14.93
2019-05-26T05:45:26.557Z,14.72
2019-05-26T05:47:57.643Z,14.82
2019-05-26T05:50:28.341Z,15.00
2019-05-26T05:52:58.906Z,15.02
2019-05-26T05:55:35.022Z,14.99
2019-05-26T05:58:06.675Z,14.83
2019-05-26T06:00:37.307Z,15.62
2019-05-26T06:03:08.025Z,15.62
2019-05-26T06:05:40.182Z,15.95
2019-05-26T06:08:10.905Z,15.94
2019-05-26T06:10:41.529Z,15.62
2019-05-26T06:13:13.701Z,15.68
2019-05-26T06:15:44.437Z,15.62
2019-05-26T06:18:15.501Z,15.72
2019-05-26T06:20:46.147Z,15.65
2019-05-26T06:23:16.990Z,15.98
2019-05-26T06:25:49.147Z,16.05
2019-05-26T06:28:20.103Z,16.56
2019-05-26T06:30:51.116Z,16.98
2019-05-26T06:33:21.891Z,17.23
2019-05-26T06:35:52.542Z,17.09
2019-05-26T06:38:24.145Z,16.71
2019-05-26T06:40:54.848Z,17.07
2019-05-26T06:43:28.489Z,17.61
2019-05-26T06:45:59.332Z,17.49
2019-05-26T06:48:29.956Z,17.54
2019-05-26T06:51:00.831Z,17.57
2019-05-26T06:53:31.501Z,17.56
2019-05-26T06:56:02.426Z,17.15
2019-05-26T06:58:33.478Z,16.75
2019-05-26T07:01:04.894Z,17.05
2019-05-26T07:03:35.604Z,17.22
2019-05-26T07:06:06.532Z,18.84
2019-05-26T07:08:37.440Z,21.11
2019-05-26T07:11:08.122Z,22.70
2019-05-26T07:13:39.055Z,23.31
2019-05-26T07:16:12.069Z,24.33
2019-05-26T07:18:43.023Z,24.57
2019-05-26T07:21:13.837Z,24.81
2019-05-26T07:23:44.647Z,24.54
2019-05-26T07:26:15.978Z,24.57
2019-05-26T07:28:46.826Z,24.49
2019-05-26T07:31:17.783Z,24.97
2019-05-26T07:33:48.726Z,23.66
2019-05-26T07:36:19.527Z,24.22
2019-05-26T07:38:50.436Z,24.17
2019-05-26T07:41:21.193Z,23.99
2019-05-26T07:43:52.095Z,23.78
2019-05-26T07:46:22.868Z,23.99
2019-05-26T07:48:53.480Z,25.00
2019-05-26T07:51:24.379Z,24.60
2019-05-26T07:53:56.194Z,24.43
2019-05-26T07:56:27.114Z,24.00
2019-05-26T07:58:59.639Z,25.03
2019-05-26T08:01:36.313Z,24.22
2019-05-26T08:04:03.071Z,24.96
2019-05-26T08:06:33.761Z,24.87
2019-05-26T08:09:07.547Z,23.57
2019-05-26T08:11:38.306Z,24.78
2019-05-26T08:14:09.259Z,24.55
2019-05-26T08:16:40.140Z,25.03
2019-05-26T08:19:12.634Z,24.75
2019-05-26T08:21:44.001Z,24.74
2019-05-26T08:24:16.629Z,24.88
2019-05-26T08:26:47.567Z,24.83
2019-05-26T08:29:18.969Z,25.00
2019-05-26T08:31:50.052Z,25.84
2019-05-26T08:34:21.002Z,26.74
2019-05-26T08:36:51.765Z,26.31
2019-05-26T08:39:22.523Z,26.77
2019-05-26T08:41:53.793Z,27.18
2019-05-26T08:44:26.181Z,25.28
2019-05-26T08:46:57.457Z,24.80
2019-05-26T08:49:28.282Z,24.83
2019-05-26T08:51:59.429Z,25.07
2019-05-26T08:54:30.147Z,24.58
2019-05-26T08:57:04.016Z,24.72
2019-05-26T08:59:36.009Z,25.01
2019-05-26T09:02:08.241Z,25.29
2019-05-26T09:04:44.481Z,25.57
2019-05-26T09:07:16.509Z,24.79
2019-05-26T09:09:50.049Z,25.21
2019-05-26T09:12:21.578Z,24.05
2019-05-26T09:14:52.256Z,24.21
2019-05-26T09:17:26.831Z,23.72
2019-05-26T09:20:12.378Z,24.28
2019-05-26T09:22:46.226Z,24.20
2019-05-26T09:25:19.407Z,25.13
2019-05-26T09:27:50.589Z,24.46
2019-05-26T09:30:24.067Z,24.68
2019-05-26T09:32:56.022Z,23.83
2019-05-26T09:35:28.246Z,23.87
2019-05-26T09:37:59.800Z,25.09
2019-05-26T09:40:31.051Z,25.15
2019-05-26T09:43:15.007Z,25.30
2019-05-26T09:45:38.361Z,24.83
2019-05-26T09:48:13.434Z,24.95
2019-05-26T09:50:44.273Z,25.63
2019-05-26T09:53:17.119Z,25.49
2019-05-26T09:55:47.908Z,25.82
2019-05-26T09:58:20.286Z,26.34
2019-05-26T10:00:52.148Z,26.38
2019-05-26T10:03:26.331Z,25.36
2019-05-26T10:05:58.285Z,25.36
2019-05-26T10:08:30.138Z,25.49
2019-05-26T10:11:00.754Z,25.61
2019-05-26T10:13:32.388Z,26.16
2019-05-26T10:16:04.273Z,25.41
2019-05-26T10:18:36.213Z,25.08
2019-05-26T10:21:11.291Z,25.10
2019-05-26T10:23:43.672Z,25.75
2019-05-26T10:26:16.803Z,25.66
2019-05-26T10:28:47.709Z,25.70
2019-05-26T10:31:18.583Z,25.12
2019-05-26T10:33:49.510Z,24.45
2019-05-26T10:36:20.250Z,25.37
2019-05-26T10:38:50.930Z,26.22
2019-05-26T10:41:21.674Z,26.90
2019-05-26T10:43:59.352Z,27.28
2019-05-26T10:46:30.249Z,26.28
2019-05-26T10:49:01.256Z,26.09
2019-05-26T10:51:32.129Z,26.22
2019-05-26T10:54:03.060Z,26.50
2019-05-26T10:56:34.932Z,27.48
2019-05-26T10:59:07.891Z,27.84
2019-05-26T11:01:40.850Z,27.56
2019-05-26T11:04:11.930Z,27.24
2019-05-26T11:06:42.827Z,27.41
2019-05-26T11:09:14.692Z,27.14
2019-05-26T11:11:45.620Z,27.94
2019-05-26T11:14:16.654Z,27.15
2019-05-26T11:16:52.769Z,27.30
2019-05-26T11:19:23.989Z,27.21
2019-05-26T11:21:58.345Z,27.11
2019-05-26T11:24:30.133Z,27.24
2019-05-26T11:27:14.678Z,27.70
2019-05-26T11:29:45.827Z,27.03
2019-05-26T11:32:17.054Z,26.19
2019-05-26T11:35:01.012Z,26.55
2019-05-26T11:37:23.577Z,25.63
2019-05-26T11:39:54.970Z,26.73
2019-05-26T11:42:25.886Z,27.61
2019-05-26T11:44:57.789Z,26.09
2019-05-26T11:47:28.524Z,25.63
2019-05-26T11:49:59.318Z,26.14
2019-05-26T11:52:30.510Z,25.98
2019-05-26T11:55:01.349Z,25.73
2019-05-26T11:57:36.272Z,25.50
2019-05-26T12:00:15.140Z,25.66
2019-05-26T12:02:47.282Z,26.22
2019-05-26T12:05:18.235Z,26.19
2019-05-26T12:07:48.923Z,26.20
2019-05-26T12:10:20.149Z,26.16
2019-05-26T12:12:51.157Z,26.73
2019-05-26T12:15:22.439Z,26.40
2019-05-26T12:17:56.523Z,25.48
2019-05-26T12:20:29.222Z,25.61
2019-05-26T12:23:01.545Z,25.89
2019-05-26T12:25:34.613Z,25.96
2019-05-26T12:28:05.602Z,26.03
2019-05-26T12:30:39.652Z,25.11
2019-05-26T12:33:10.382Z,25.31
2019-05-26T12:35:45.797Z,26.26
2019-05-26T12:38:17.450Z,25.80
2019-05-26T12:40:51.174Z,25.45
2019-05-26T12:43:23.150Z,26.26
2019-05-26T12:45:54.988Z,26.35
2019-05-26T12:48:25.766Z,26.91
2019-05-26T12:50:56.582Z,25.55
2019-05-26T12:53:28.605Z,25.67
2019-05-26T12:55:59.624Z,25.49
2019-05-26T12:58:33.744Z,25.79
2019-05-26T13:01:10.237Z,26.04
2019-05-26T13:03:43.168Z,25.19
2019-05-26T13:06:17.658Z,24.96
2019-05-26T13:08:50.398Z,25.23
2019-05-26T13:11:22.918Z,25.66
2019-05-26T13:13:54.068Z,25.58
2019-05-26T13:16:25.022Z,25.86
2019-05-26T13:18:56.295Z,25.58
2019-05-26T13:21:29.166Z,26.66
2019-05-26T13:24:00.563Z,27.04
2019-05-26T13:26:31.658Z,26.99
2019-05-26T13:29:09.134Z,27.11
2019-05-26T13:31:43.319Z,26.50
2019-05-26T13:34:22.453Z,26.81
2019-05-26T13:36:56.343Z,26.62
2019-05-26T13:39:27.319Z,27.06
2019-05-26T13:42:01.170Z,26.97
2019-05-26T13:44:31.989Z,27.11
2019-05-26T13:47:02.911Z,27.35
2019-05-26T13:49:33.952Z,26.78
2019-05-26T13:52:05.525Z,26.81
2019-05-26T13:54:38.276Z,26.09
2019-05-26T13:57:10.545Z,25.97
2019-05-26T13:59:45.355Z,26.06
2019-05-26T14:02:18.773Z,26.31
2019-05-26T14:04:53.095Z,25.84
2019-05-26T14:07:24.069Z,25.98
2019-05-26T14:09:59.229Z,25.67
2019-05-26T14:12:30.608Z,25.81
2019-05-26T14:15:08.424Z,26.02
2019-05-26T14:17:40.360Z,26.65
2019-05-26T14:20:14.246Z,25.95
2019-05-26T14:22:51.010Z,26.05
2019-05-26T14:25:23.775Z,26.09
2019-05-26T14:27:58.537Z,26.50
2019-05-26T14:30:32.245Z,26.58
2019-05-26T14:33:05.824Z,26.64
2019-05-26T14:35:39.547Z,26.76
2019-05-26T14:38:10.445Z,26.77
2019-05-26T14:40:56.920Z,26.50
2019-05-26T14:43:22.764Z,26.41
2019-05-26T14:45:55.266Z,26.00
2019-05-26T14:48:27.756Z,25.79
2019-05-26T14:50:59.932Z,25.88
2019-05-26T14:53:34.835Z,25.42
2019-05-26T14:56:05.888Z,25.38
2019-05-26T14:58:39.901Z,25.46
2019-05-26T15:01:13.666Z,24.98
2019-05-26T15:03:45.152Z,24.60
2019-05-26T15:06:19.841Z,24.62
2019-05-26T15:08:52.367Z,25.15
2019-05-26T15:11:23.541Z,25.08
2019-05-26T15:13:58.438Z,25.73
2019-05-26T15:16:29.661Z,26.23
2019-05-26T15:19:03.518Z,25.99
2019-05-26T15:21:36.015Z,25.68
2019-05-26T15:24:07.002Z,25.68
2019-05-26T15:26:42.079Z,25.83
2019-05-26T15:29:13.560Z,25.98
2019-05-26T15:31:44.247Z,26.38
2019-05-26T15:34:15.043Z,25.88
2019-05-26T15:36:45.820Z,26.13
2019-05-26T15:39:16.605Z,26.08
2019-05-26T15:41:47.664Z,26.01
2019-05-26T15:44:18.689Z,26.35
2019-05-26T15:46:49.680Z,26.68
2019-05-26T15:49:20.678Z,26.61
2019-05-26T15:51:51.854Z,26.24
2019-05-26T15:54:26.568Z,25.76
2019-05-26T15:56:57.487Z,25.45
2019-05-26T15:59:28.339Z,25.39
2019-05-26T16:01:59.470Z,25.33
2019-05-26T16:04:35.062Z,25.38
2019-05-26T16:07:10.983Z,25.18
2019-05-26T16:09:41.916Z,24.81
2019-05-26T16:12:13.027Z,24.99
2019-05-26T16:14:43.913Z,24.90
2019-05-26T16:17:14.963Z,24.94
2019-05-26T16:19:46.688Z,24.81
2019-05-26T16:22:20.256Z,24.71
2019-05-26T16:24:56.048Z,24.57
2019-05-26T16:27:27.330Z,24.58
2019-05-26T16:29:59.297Z,24.57
2019-05-26T16:32:31.942Z,24.47
2019-05-26T16:35:05.286Z,24.53
2019-05-26T16:37:36.164Z,24.56
2019-05-26T16:40:09.421Z,24.66
2019-05-26T16:42:42.784Z,24.65
2019-05-26T16:45:14.218Z,24.58
2019-05-26T16:47:46.296Z,24.62
2019-05-26T16:50:37.207Z,24.49
2019-05-26T16:53:15.698Z,24.15
2019-05-26T16:55:47.516Z,23.99
2019-05-26T16:58:25.973Z,23.95
2019-05-26T17:00:59.827Z,24.14
2019-05-26T17:03:32.074Z,24.04
2019-05-26T17:06:07.812Z,24.17
2019-05-26T17:08:35.939Z,24.25
2019-05-26T17:11:09.459Z,24.06
2019-05-26T17:13:40.413Z,24.07
2019-05-26T17:16:11.791Z,24.03
2019-05-26T17:18:42.727Z,23.81
2019-05-26T17:21:18.642Z,23.84
2019-05-26T17:23:52.280Z,23.97
2019-05-26T17:26:23.529Z,24.08
2019-05-26T17:28:59.024Z,23.97
2019-05-26T17:31:30.462Z,23.67
2019-05-26T17:34:01.263Z,23.51
2019-05-26T17:36:34.560Z,23.62
2019-05-26T17:39:07.968Z,23.33
2019-05-26T17:41:39.277Z,23.13
2019-05-26T17:44:13.541Z,22.82
2019-05-26T17:46:45.954Z,22.85
2019-05-26T17:49:16.864Z,22.87
2019-05-26T17:51:48.341Z,22.69
2019-05-26T17:54:19.518Z,22.55
2019-05-26T17:56:50.410Z,22.56
2019-05-26T17:59:25.027Z,22.49
2019-05-26T18:01:56.726Z,22.31
2019-05-26T18:04:28.953Z,22.06
2019-05-26T18:06:59.867Z,21.98
2019-05-26T18:09:43.771Z,21.89
2019-05-26T18:12:05.405Z,21.79
2019-05-26T18:14:38.509Z,21.74
2019-05-26T18:17:09.949Z,21.48
2019-05-26T18:19:42.132Z,21.36
2019-05-26T18:22:16.777Z,21.17
2019-05-26T18:24:56.395Z,21.02
2019-05-26T18:27:21.537Z,20.93
2019-05-26T18:29:53.252Z,20.69
2019-05-26T18:32:25.522Z,20.59
2019-05-26T18:34:57.888Z,20.53
2019-05-26T18:37:31.850Z,20.56
2019-05-26T18:42:58.330Z,20.40
2019-05-26T18:45:30.016Z,20.39
2019-05-26T18:48:03.335Z,20.30
2019-05-26T18:50:34.148Z,20.35
2019-05-26T18:53:05.228Z,20.35
2019-05-26T18:55:36.897Z,20.26
2019-05-26T18:58:10.441Z,20.20
2019-05-26T19:00:45.317Z,19.98
2019-05-26T19:03:16.521Z,19.81
2019-05-26T19:05:47.678Z,19.69
2019-05-26T19:08:20.421Z,19.69
2019-05-26T19:10:51.529Z,19.72
2019-05-26T19:13:23.539Z,19.70
2019-05-26T19:15:55.278Z,19.68
2019-05-26T19:18:27.612Z,19.66
2019-05-26T19:20:59.401Z,19.64
2019-05-26T19:23:30.667Z,19.61
2019-05-26T19:26:04.852Z,19.62
2019-05-26T19:28:36.450Z,19.57
2019-05-26T19:31:07.957Z,19.49
2019-05-26T19:33:39.086Z,19.42
2019-05-26T19:36:10.169Z,19.40
2019-05-26T19:38:44.239Z,19.29
2019-05-26T19:41:16.796Z,19.23
2019-05-26T19:43:47.773Z,19.26
2019-05-26T19:46:19.194Z,19.24
2019-05-26T19:48:50.952Z,19.23
2019-05-26T19:51:23.065Z,19.17
2019-05-26T19:53:57.317Z,18.93
2019-05-26T19:56:30.103Z,18.75
2019-05-26T19:59:02.888Z,18.75
2019-05-26T20:01:37.024Z,18.76
2019-05-26T20:04:08.829Z,18.66
2019-05-26T20:06:43.690Z,18.61
2019-05-26T20:09:14.117Z,18.53
2019-05-26T20:11:47.708Z,18.56
2019-05-26T20:14:19.620Z,18.57
2019-05-26T20:16:51.117Z,18.59
2019-05-26T20:19:24.008Z,18.60
2019-05-26T20:21:55.628Z,18.53
2019-05-26T20:24:28.093Z,18.47
2019-05-26T20:27:00.725Z,18.33
2019-05-26T20:29:32.086Z,18.26
2019-05-26T20:32:07.524Z,18.18
2019-05-26T20:34:40.558Z,18.23
2019-05-26T20:37:13.655Z,18.07
2019-05-26T20:39:45.387Z,18.16
2019-05-26T20:42:18.625Z,18.07
2019-05-26T20:44:52.230Z,18.09
2019-05-26T20:47:29.063Z,18.10
2019-05-26T20:50:00.826Z,18.05
2019-05-26T20:52:32.325Z,18.03
2019-05-26T20:55:05.318Z,18.01
2019-05-26T20:57:36.689Z,17.84
2019-05-26T21:00:11.352Z,17.72
2019-05-26T21:02:43.694Z,17.72
2019-05-26T21:05:16.902Z,17.73
2019-05-26T21:07:48.283Z,17.67
2019-05-26T21:10:20.060Z,17.60
2019-05-26T21:12:51.006Z,17.51
2019-05-26T21:15:22.411Z,17.40
2019-05-26T21:17:54.702Z,17.28
2019-05-26T21:20:26.298Z,17.20
2019-05-26T21:22:57.219Z,17.08
2019-05-26T21:25:28.309Z,16.96
2019-05-26T21:28:00.095Z,16.87
2019-05-26T21:30:31.347Z,16.79
2019-05-26T21:33:02.759Z,16.73
2019-05-26T21:35:33.885Z,16.63
2019-05-26T21:38:06.276Z,16.52
2019-05-26T21:40:38.055Z,16.30
2019-05-26T21:43:09.162Z,16.22
2019-05-26T21:45:40.407Z,16.15
2019-05-26T21:48:11.765Z,16.06
2019-05-26T21:50:44.307Z,15.99
2019-05-26T21:53:15.658Z,15.90
2019-05-26T21:55:46.586Z,15.80
2019-05-26T21:58:17.615Z,15.71
2019-05-26T22:00:50.694Z,15.66
2019-05-26T22:03:23.484Z,15.62
2019-05-26T22:05:55.297Z,15.64
2019-05-26T22:08:26.600Z,15.58
2019-05-26T22:10:58.803Z,15.56
2019-05-26T22:13:30.431Z,15.47
2019-05-26T22:16:01.824Z,15.39
2019-05-26T22:18:33.589Z,15.38
2019-05-26T22:21:06.137Z,15.36
2019-05-26T22:23:37.186Z,15.34
2019-05-26T22:26:08.886Z,15.19
2019-05-26T22:28:40.345Z,15.05
2019-05-26T22:31:11.818Z,14.97
2019-05-26T22:33:43.038Z,14.89
2019-05-26T22:36:14.055Z,14.75
2019-05-26T22:38:45.822Z,14.75
2019-05-26T22:41:17.530Z,14.82
2019-05-26T22:43:49.123Z,14.89
2019-05-26T22:46:20.438Z,14.98
2019-05-26T22:48:52.059Z,14.91
2019-05-26T22:51:23.339Z,14.81
2019-05-26T22:53:56.360Z,14.79
2019-05-26T22:56:28.156Z,14.73
2019-05-26T22:58:59.717Z,14.71
2019-05-26T23:01:31.710Z,14.71
2019-05-26T23:04:04.501Z,14.71
2019-05-26T23:06:37.626Z,14.66
2019-05-26T23:09:09.117Z,14.65
2019-05-26T23:11:41.942Z,14.66
2019-05-26T23:14:14.665Z,14.66
2019-05-26T23:16:46.983Z,14.61
2019-05-26T23:19:20.381Z,14.51
2019-05-26T23:21:52.487Z,14.38
2019-05-26T23:24:24.144Z,14.41
2019-05-26T23:26:56.559Z,14.43
2019-05-26T23:29:28.779Z,14.32
2019-05-26T23:32:01.346Z,14.40
2019-05-26T23:34:33.505Z,14.36
2019-05-26T23:37:07.204Z,14.40
2019-05-26T23:39:39.853Z,14.30
2019-05-26T23:42:13.737Z,14.28
2019-05-26T23:44:45.930Z,14.38
2019-05-26T23:47:18.296Z,14.35
2019-05-26T23:49:49.569Z,14.32
2019-05-26T23:52:21.821Z,14.21
2019-05-26T23:54:53.789Z,14.11
2019-05-26T23:57:25.508Z,13.99
2019-05-26T23:59:56.478Z,13.93
